sensor_id;sensor_type;location;lat;lon;timestamp;temperature;humidity
14993;DHT22;7592;51.088;13.732;2023-04-01T00:03:20;11.30;99.90
14993;DHT22;7592;51.088;13.732;2023-04-01T00:08:13;11.20;99.90
14993;DHT22;7592;51.088;13.732;2023-04-01T00:13:05;11.20;99.90
14993;DHT22;7592;51.088;13.732;2023-04-01T00:17:57;11.20;99.90
14993;DHT22;7592;51.088;13.732;2023-04-01T00:22:49;11.20;99.90
14993;DHT22;7592;51.088;13.732;2023-04-01T00:27:41;11.20;99.90
14993;DHT22;7592;51.088;13.732;2023-04-01T00:32:34;11.20;99.90
14993;DHT22;7592;51.088;13.732;2023-04-01T00:37:27;11.20;99.90
14993;DHT22;7592;51.088;13.732;2023-04-01T00:42:20;11.20;99.90
14993;DHT22;7592;51.088;13.732;2023-04-01T00:47:12;11.20;99.90
14993;DHT22;7592;51.088;13.732;2023-04-01T00:52:07;11.20;99.90
14993;DHT22;7592;51.088;13.732;2023-04-01T00:57:09;11.20;99.90
14993;DHT22;7592;51.088;13.732;2023-04-01T01:02:06;11.20;99.90
14993;DHT22;7592;51.088;13.732;2023-04-01T01:12:56;11.20;99.90
14993;DHT22;7592;51.088;13.732;2023-04-01T01:18:13;11.10;99.90
14993;DHT22;7592;51.088;13.732;2023-04-01T01:34:00;11.20;99.90
14993;DHT22;7592;51.088;13.732;2023-04-01T01:38:55;11.20;99.90
14993;DHT22;7592;51.088;13.732;2023-04-01T01:43:50;11.20;99.90
14993;DHT22;7592;51.088;13.732;2023-04-01T01:48:43;11.20;99.90
14993;DHT22;7592;51.088;13.732;2023-04-01T01:53:37;11.10;99.90
14993;DHT22;7592;51.088;13.732;2023-04-01T02:03:25;11.10;99.90
14993;DHT22;7592;51.088;13.732;2023-04-01T02:08:23;11.10;99.90
14993;DHT22;7592;51.088;13.732;2023-04-01T02:13:22;11.10;99.90
14993;DHT22;7592;51.088;13.732;2023-04-01T02:18:17;11.10;99.90
14993;DHT22;7592;51.088;13.732;2023-04-01T02:23:11;11.20;99.90
14993;DHT22;7592;51.088;13.732;2023-04-01T02:28:07;11.10;99.90
14993;DHT22;7592;51.088;13.732;2023-04-01T02:33:04;11.10;99.90
14993;DHT22;7592;51.088;13.732;2023-04-01T02:37:57;11.20;99.90
14993;DHT22;7592;51.088;13.732;2023-04-01T02:42:49;11.20;99.90
14993;DHT22;7592;51.088;13.732;2023-04-01T02:47:41;11.20;99.90
14993;DHT22;7592;51.088;13.732;2023-04-01T02:52:34;11.20;99.90
14993;DHT22;7592;51.088;13.732;2023-04-01T02:57:26;11.20;99.90
14993;DHT22;7592;51.088;13.732;2023-04-01T03:02:18;11.10;99.90
14993;DHT22;7592;51.088;13.732;2023-04-01T03:07:10;11.00;99.90
14993;DHT22;7592;51.088;13.732;2023-04-01T03:12:03;11.00;99.90
14993;DHT22;7592;51.088;13.732;2023-04-01T03:17:00;11.00;99.90
14993;DHT22;7592;51.088;13.732;2023-04-01T03:21:52;11.00;99.90
14993;DHT22;7592;51.088;13.732;2023-04-01T03:26:46;11.00;99.90
14993;DHT22;7592;51.088;13.732;2023-04-01T03:31:38;11.00;99.90
14993;DHT22;7592;51.088;13.732;2023-04-01T03:36:30;11.00;99.90
14993;DHT22;7592;51.088;13.732;2023-04-01T03:41:23;11.00;99.90
14993;DHT22;7592;51.088;13.732;2023-04-01T03:46:19;11.10;99.90
14993;DHT22;7592;51.088;13.732;2023-04-01T03:51:14;11.10;99.90
14993;DHT22;7592;51.088;13.732;2023-04-01T03:56:08;11.00;99.90
14993;DHT22;7592;51.088;13.732;2023-04-01T04:01:00;11.10;99.90
14993;DHT22;7592;51.088;13.732;2023-04-01T04:05:56;11.10;99.90
14993;DHT22;7592;51.088;13.732;2023-04-01T04:10:55;11.10;99.90
14993;DHT22;7592;51.088;13.732;2023-04-01T04:15:47;11.10;99.90
14993;DHT22;7592;51.088;13.732;2023-04-01T04:20:44;11.10;99.90
14993;DHT22;7592;51.088;13.732;2023-04-01T04:25:38;11.00;99.90
14993;DHT22;7592;51.088;13.732;2023-04-01T04:30:29;11.00;99.90
14993;DHT22;7592;51.088;13.732;2023-04-01T04:35:23;11.00;99.90
14993;DHT22;7592;51.088;13.732;2023-04-01T04:40:15;11.00;99.90
14993;DHT22;7592;51.088;13.732;2023-04-01T04:45:08;11.00;99.90
14993;DHT22;7592;51.088;13.732;2023-04-01T04:50:04;11.00;99.90
14993;DHT22;7592;51.088;13.732;2023-04-01T04:54:57;11.10;99.90
14993;DHT22;7592;51.088;13.732;2023-04-01T04:59:49;11.00;99.90
14993;DHT22;7592;51.088;13.732;2023-04-01T05:05:01;11.00;99.90
14993;DHT22;7592;51.088;13.732;2023-04-01T05:09:55;11.20;99.90
14993;DHT22;7592;51.088;13.732;2023-04-01T05:14:47;11.20;99.90
14993;DHT22;7592;51.088;13.732;2023-04-01T05:19:39;11.20;99.90
14993;DHT22;7592;51.088;13.732;2023-04-01T05:24:32;11.30;99.90
14993;DHT22;7592;51.088;13.732;2023-04-01T05:29:25;11.30;99.90
14993;DHT22;7592;51.088;13.732;2023-04-01T05:34:25;11.40;99.90
14993;DHT22;7592;51.088;13.732;2023-04-01T05:39:17;11.50;99.90
14993;DHT22;7592;51.088;13.732;2023-04-01T05:44:11;11.50;99.90
14993;DHT22;7592;51.088;13.732;2023-04-01T05:49:04;11.70;99.90
14993;DHT22;7592;51.088;13.732;2023-04-01T05:53:57;11.80;99.90
14993;DHT22;7592;51.088;13.732;2023-04-01T05:58:52;11.80;99.90
14993;DHT22;7592;51.088;13.732;2023-04-01T06:03:47;11.90;99.90
14993;DHT22;7592;51.088;13.732;2023-04-01T06:08:39;11.90;99.90
14993;DHT22;7592;51.088;13.732;2023-04-01T06:13:59;11.90;99.90
14993;DHT22;7592;51.088;13.732;2023-04-01T06:29:25;12.20;99.90
14993;DHT22;7592;51.088;13.732;2023-04-01T06:55:47;13.00;99.90
14993;DHT22;7592;51.088;13.732;2023-04-01T07:01:14;13.10;99.90
14993;DHT22;7592;51.088;13.732;2023-04-01T07:06:24;13.30;99.90
14993;DHT22;7592;51.088;13.732;2023-04-01T07:11:31;13.40;99.90
14993;DHT22;7592;51.088;13.732;2023-04-01T07:17:17;13.50;99.90
14993;DHT22;7592;51.088;13.732;2023-04-01T07:22:27;13.60;99.90
14993;DHT22;7592;51.088;13.732;2023-04-01T07:27:42;13.50;99.90
14993;DHT22;7592;51.088;13.732;2023-04-01T07:48:12;13.60;99.90
14993;DHT22;7592;51.088;13.732;2023-04-01T07:53:14;13.70;99.90
14993;DHT22;7592;51.088;13.732;2023-04-01T07:58:20;13.80;99.90
14993;DHT22;7592;51.088;13.732;2023-04-01T08:03:38;14.10;99.90
14993;DHT22;7592;51.088;13.732;2023-04-01T08:14:08;14.50;99.90
14993;DHT22;7592;51.088;13.732;2023-04-01T08:24:45;14.70;99.90
14993;DHT22;7592;51.088;13.732;2023-04-01T08:29:57;14.80;99.90
14993;DHT22;7592;51.088;13.732;2023-04-01T09:28:19;15.30;99.90
14993;DHT22;7592;51.088;13.732;2023-04-01T09:44:01;14.80;99.90
14993;DHT22;7592;51.088;13.732;2023-04-01T09:54:09;15.40;99.90
14993;DHT22;7592;51.088;13.732;2023-04-01T10:46:41;15.70;99.90
14993;DHT22;7592;51.088;13.732;2023-04-01T11:03:21;15.20;99.90
14993;DHT22;7592;51.088;13.732;2023-04-01T11:19:32;15.10;99.90
14993;DHT22;7592;51.088;13.732;2023-04-01T11:46:10;16.80;99.90
14993;DHT22;7592;51.088;13.732;2023-04-01T12:11:34;17.80;99.90
14993;DHT22;7592;51.088;13.732;2023-04-01T12:47:44;18.40;99.90
14993;DHT22;7592;51.088;13.732;2023-04-01T13:03:06;19.10;99.90
14993;DHT22;7592;51.088;13.732;2023-04-01T13:24:13;18.60;99.90
14993;DHT22;7592;51.088;13.732;2023-04-01T13:29:18;17.60;99.90
14993;DHT22;7592;51.088;13.732;2023-04-01T13:39:45;16.40;99.90
14993;DHT22;7592;51.088;13.732;2023-04-01T13:55:49;16.80;99.90
14993;DHT22;7592;51.088;13.732;2023-04-01T14:00:51;17.40;99.90
14993;DHT22;7592;51.088;13.732;2023-04-01T14:48:24;16.90;99.90
14993;DHT22;7592;51.088;13.732;2023-04-01T14:58:18;16.10;99.90
14993;DHT22;7592;51.088;13.732;2023-04-01T15:03:29;15.70;99.90
14993;DHT22;7592;51.088;13.732;2023-04-01T15:14:31;16.10;99.90
14993;DHT22;7592;51.088;13.732;2023-04-01T15:35:42;16.20;99.90
14993;DHT22;7592;51.088;13.732;2023-04-01T15:40:53;16.20;99.90
14993;DHT22;7592;51.088;13.732;2023-04-01T16:01:59;15.90;99.90
14993;DHT22;7592;51.088;13.732;2023-04-01T16:07:17;15.50;99.90
14993;DHT22;7592;51.088;13.732;2023-04-01T16:12:28;15.30;99.90
14993;DHT22;7592;51.088;13.732;2023-04-01T16:17:29;15.20;99.90
14993;DHT22;7592;51.088;13.732;2023-04-01T16:22:34;14.90;99.90
14993;DHT22;7592;51.088;13.732;2023-04-01T16:42:46;14.40;99.90
14993;DHT22;7592;51.088;13.732;2023-04-01T16:47:46;14.40;99.90
14993;DHT22;7592;51.088;13.732;2023-04-01T16:58:00;14.10;99.90
14993;DHT22;7592;51.088;13.732;2023-04-01T17:03:02;14.10;99.90
14993;DHT22;7592;51.088;13.732;2023-04-01T17:08:29;14.10;99.90
14993;DHT22;7592;51.088;13.732;2023-04-01T17:13:50;14.00;99.90
14993;DHT22;7592;51.088;13.732;2023-04-01T17:19:10;13.80;99.90
14993;DHT22;7592;51.088;13.732;2023-04-01T17:24:27;13.60;99.90
14993;DHT22;7592;51.088;13.732;2023-04-01T17:29:55;13.60;99.90
14993;DHT22;7592;51.088;13.732;2023-04-01T18:10:57;12.80;99.90
14993;DHT22;7592;51.088;13.732;2023-04-01T18:26:24;12.60;99.90
14993;DHT22;7592;51.088;13.732;2023-04-01T18:31:21;12.60;99.90
14993;DHT22;7592;51.088;13.732;2023-04-01T19:07:55;12.40;99.90
14993;DHT22;7592;51.088;13.732;2023-04-01T19:23:07;12.00;99.90
14993;DHT22;7592;51.088;13.732;2023-04-01T19:39:29;11.80;99.90
14993;DHT22;7592;51.088;13.732;2023-04-01T19:49:27;11.80;99.90
14993;DHT22;7592;51.088;13.732;2023-04-01T19:59:53;11.60;99.90
14993;DHT22;7592;51.088;13.732;2023-04-01T20:04:56;11.70;99.90
14993;DHT22;7592;51.088;13.732;2023-04-01T20:14:58;11.60;99.90
14993;DHT22;7592;51.088;13.732;2023-04-01T20:19:59;11.60;99.90
14993;DHT22;7592;51.088;13.732;2023-04-01T20:24:53;11.60;99.90
14993;DHT22;7592;51.088;13.732;2023-04-01T20:40:32;11.60;99.90
14993;DHT22;7592;51.088;13.732;2023-04-01T20:45:37;11.50;99.90
14993;DHT22;7592;51.088;13.732;2023-04-01T20:50:39;11.60;99.90
14993;DHT22;7592;51.088;13.732;2023-04-01T21:01:15;11.60;99.90
14993;DHT22;7592;51.088;13.732;2023-04-01T21:06:20;11.70;99.90
14993;DHT22;7592;51.088;13.732;2023-04-01T21:11:28;11.70;99.90
14993;DHT22;7592;51.088;13.732;2023-04-01T21:16:49;11.70;99.90
14993;DHT22;7592;51.088;13.732;2023-04-01T21:48:12;11.30;99.90
14993;DHT22;7592;51.088;13.732;2023-04-01T21:59:46;11.00;99.90
14993;DHT22;7592;51.088;13.732;2023-04-01T22:09:24;10.90;99.90
14993;DHT22;7592;51.088;13.732;2023-04-01T22:14:47;10.80;99.90
14993;DHT22;7592;51.088;13.732;2023-04-01T22:25:02;10.70;99.90
14993;DHT22;7592;51.088;13.732;2023-04-01T22:45:43;10.30;99.90
14993;DHT22;7592;51.088;13.732;2023-04-01T22:50:46;10.40;99.90
14993;DHT22;7592;51.088;13.732;2023-04-01T22:55:45;10.30;99.90
14993;DHT22;7592;51.088;13.732;2023-04-01T23:05:46;10.20;99.90
14993;DHT22;7592;51.088;13.732;2023-04-01T23:10:43;10.30;99.90
14993;DHT22;7592;51.088;13.732;2023-04-01T23:15:38;10.20;99.90
14993;DHT22;7592;51.088;13.732;2023-04-01T23:21:14;10.20;99.90
14993;DHT22;7592;51.088;13.732;2023-04-01T23:31:29;10.00;99.90
14993;DHT22;7592;51.088;13.732;2023-04-01T23:36:22;9.80;99.90
14993;DHT22;7592;51.088;13.732;2023-04-01T23:41:27;9.80;99.90
14993;DHT22;7592;51.088;13.732;2023-04-01T23:46:22;9.80;99.90
14993;DHT22;7592;51.088;13.732;2023-04-01T23:51:26;9.70;99.90
14993;DHT22;7592;51.088;13.732;2023-04-01T23:56:18;9.70;99.90
